Little River, TX (76554)

3:47 PM CST on December 17, 2014 (GMT -0600)
Wilson Valley | Change Station
CLOSE
Current Station
Personal Weather Station
Location: Little River-Academy, TX
Elevation: 476 ft
Nearby Weather Stations

Elev 476 ft 30.97 °N, 97.38 °W | Updated 6 seconds ago

Overcast
Overcast
47.7 °F
Feels Like 48 °F
N
0.0
Wind Variable Wind from NW
Gusts 0.0 mph

Today
High -- | Low -- °F
--% Chance of Precip.
Yesterday
High -- | Low -- °F
Precip. -- in
7:21 AM 5:29 PM
Waning Crescent, 19% visible
Pressure 30.06 in
Visibility 9.0 miles
Clouds Overcast 1500 ft
Windchill 48 °F
Dew Point 46 °F
Humidity 93%
Rainfall 0.15 in
Snow Depth Not available.
UV 0 out of 12
Pollen 7.70 out of 12
Air Quality Not available.
Flu Activity Not available.
METAR KTPL 172135Z AUTO 12006KT 9SM OVC015 08/03 A3006 RMK AO1

More Conditions Fewer Conditions

Pressure 30.06 in
Visibility 9.0 miles
Clouds Overcast 1500 ft
Windchill 48 °F
Dew Point 46 °F
Humidity 93%
Rainfall 0.15 in
Snow Depth Not available.
UV 0 out of 12
Pollen 7.70 out of 12
Air Quality Not available.
Flu Activity Not available.
METAR KTPL 172135Z AUTO 12006KT 9SM OVC015 08/03 A3006 RMK AO1

More Conditions Fewer Conditions

Nowcast | as of 12:44 PM CST on December 17, 2014

Areas of drizzle and light rain will continue to move northeast across North Texas through the afternoon hours. Isolated thunderstorms will also be possible. Rainfall amounts will generally be light...with totals under one quarter of an inch. Skies will remain cloudy with temperatures lingering in the 40s.

×

10-Day Weather Forecast

Almanac

Astronomy

Dec. 17, 2014 Rise Set
Actual Time
Civil Twilight
Nautical Twilight
Astronomical Twilight
Moon
Length of Visible Light
Length of Day
Tomorrow will be .
, % of the Moon is Illuminated

Today's Extremes

State Highs State Lows

Community

WunderPhotos

Upload Photos

1,778,807 photos uploaded!

WunderBlogs® & News

Nearby

Air Quality

  Air Quality AQ Index Pollutant
Not available.

Snow Depth

Station Depth Elevation

Earthquake Activity

City Distance Mag. Time & Date
Minimum magnitude displayed is 2.5.

Coastal Water Temperatures

Place Temperature

Nearby Weather Stations